sensor_id;sensor_type;location;lat;lon;timestamp;P1;durP1;ratioP1;P2;durP2;ratioP2
52210;SDS011;38179;52.756;6.906;2023-03-20T00:01:43;16.80;;;15.07;;
52210;SDS011;38179;52.756;6.906;2023-03-20T00:04:09;18.52;;;15.35;;
52210;SDS011;38179;52.756;6.906;2023-03-20T00:06:40;17.38;;;14.82;;
52210;SDS011;38179;52.756;6.906;2023-03-20T00:09:06;17.83;;;15.32;;
52210;SDS011;38179;52.756;6.906;2023-03-20T00:11:38;17.80;;;15.90;;
52210;SDS011;38179;52.756;6.906;2023-03-20T00:14:12;18.35;;;15.13;;
52210;SDS011;38179;52.756;6.906;2023-03-20T00:16:43;18.45;;;15.07;;
52210;SDS011;38179;52.756;6.906;2023-03-20T00:19:13;18.75;;;15.65;;
52210;SDS011;38179;52.756;6.906;2023-03-20T00:21:53;18.80;;;16.00;;
52210;SDS011;38179;52.756;6.906;2023-03-20T00:24:20;16.98;;;15.07;;
52210;SDS011;38179;52.756;6.906;2023-03-20T00:26:47;18.70;;;15.10;;
52210;SDS011;38179;52.756;6.906;2023-03-20T00:29:24;17.58;;;14.98;;
52210;SDS011;38179;52.756;6.906;2023-03-20T00:31:53;20.50;;;15.90;;
52210;SDS011;38179;52.756;6.906;2023-03-20T00:34:20;17.80;;;15.05;;
52210;SDS011;38179;52.756;6.906;2023-03-20T00:36:48;20.35;;;14.98;;
52210;SDS011;38179;52.756;6.906;2023-03-20T00:39:15;19.95;;;15.23;;
52210;SDS011;38179;52.756;6.906;2023-03-20T00:41:41;21.05;;;16.80;;
52210;SDS011;38179;52.756;6.906;2023-03-20T00:46:57;22.05;;;16.42;;
52210;SDS011;38179;52.756;6.906;2023-03-20T00:49:30;21.15;;;15.68;;
52210;SDS011;38179;52.756;6.906;2023-03-20T00:51:58;18.95;;;15.52;;
52210;SDS011;38179;52.756;6.906;2023-03-20T00:54:26;23.65;;;16.63;;
52210;SDS011;38179;52.756;6.906;2023-03-20T00:59:37;22.08;;;16.40;;
52210;SDS011;38179;52.756;6.906;2023-03-20T01:02:10;21.20;;;16.55;;
52210;SDS011;38179;52.756;6.906;2023-03-20T01:04:37;24.48;;;17.75;;
52210;SDS011;38179;52.756;6.906;2023-03-20T01:07:05;25.85;;;18.63;;
52210;SDS011;38179;52.756;6.906;2023-03-20T01:09:32;27.95;;;19.33;;
52210;SDS011;38179;52.756;6.906;2023-03-20T01:12:01;29.40;;;19.40;;
52210;SDS011;38179;52.756;6.906;2023-03-20T01:14:28;28.88;;;18.63;;
52210;SDS011;38179;52.756;6.906;2023-03-20T01:16:55;29.38;;;19.10;;
52210;SDS011;38179;52.756;6.906;2023-03-20T01:19:21;29.73;;;19.02;;
52210;SDS011;38179;52.756;6.906;2023-03-20T01:21:47;31.85;;;19.63;;
52210;SDS011;38179;52.756;6.906;2023-03-20T01:24:13;26.73;;;19.23;;
52210;SDS011;38179;52.756;6.906;2023-03-20T01:26:39;30.17;;;18.27;;
52210;SDS011;38179;52.756;6.906;2023-03-20T01:29:17;27.00;;;18.00;;
52210;SDS011;38179;52.756;6.906;2023-03-20T01:31:48;28.60;;;17.88;;
52210;SDS011;38179;52.756;6.906;2023-03-20T01:34:15;24.75;;;17.55;;
52210;SDS011;38179;52.756;6.906;2023-03-20T01:36:46;27.75;;;17.55;;
52210;SDS011;38179;52.756;6.906;2023-03-20T01:39:15;25.27;;;15.93;;
52210;SDS011;38179;52.756;6.906;2023-03-20T01:41:42;23.08;;;15.68;;
52210;SDS011;38179;52.756;6.906;2023-03-20T01:44:20;20.25;;;15.10;;
52210;SDS011;38179;52.756;6.906;2023-03-20T01:46:51;21.60;;;15.10;;
52210;SDS011;38179;52.756;6.906;2023-03-20T01:51:44;20.80;;;13.95;;
52210;SDS011;38179;52.756;6.906;2023-03-20T01:54:15;18.73;;;14.23;;
52210;SDS011;38179;52.756;6.906;2023-03-20T01:56:52;22.05;;;14.02;;
52210;SDS011;38179;52.756;6.906;2023-03-20T01:59:26;19.45;;;13.38;;
52210;SDS011;38179;52.756;6.906;2023-03-20T02:01:55;24.10;;;13.82;;
52210;SDS011;38179;52.756;6.906;2023-03-20T02:04:25;19.45;;;13.38;;
52210;SDS011;38179;52.756;6.906;2023-03-20T02:06:54;18.67;;;12.95;;
52210;SDS011;38179;52.756;6.906;2023-03-20T02:09:21;15.82;;;12.98;;
52210;SDS011;38179;52.756;6.906;2023-03-20T02:11:47;18.08;;;12.40;;
52210;SDS011;38179;52.756;6.906;2023-03-20T02:14:13;18.50;;;13.02;;
52210;SDS011;38179;52.756;6.906;2023-03-20T02:16:39;17.40;;;12.32;;
52210;SDS011;38179;52.756;6.906;2023-03-20T02:19:06;16.80;;;12.93;;
52210;SDS011;38179;52.756;6.906;2023-03-20T02:22:05;18.17;;;12.20;;
52210;SDS011;38179;52.756;6.906;2023-03-20T02:28:09;18.27;;;12.60;;
52210;SDS011;38179;52.756;6.906;2023-03-20T02:41:20;17.08;;;12.85;;
52210;SDS011;38179;52.756;6.906;2023-03-20T02:46:46;20.95;;;13.38;;
52210;SDS011;38179;52.756;6.906;2023-03-20T02:52:28;17.33;;;13.60;;
52210;SDS011;38179;52.756;6.906;2023-03-20T02:57:35;17.38;;;14.25;;
52210;SDS011;38179;52.756;6.906;2023-03-20T03:02:49;23.30;;;15.50;;
52210;SDS011;38179;52.756;6.906;2023-03-20T03:05:21;21.77;;;15.77;;
52210;SDS011;38179;52.756;6.906;2023-03-20T03:07:52;22.60;;;15.02;;
52210;SDS011;38179;52.756;6.906;2023-03-20T03:10:40;25.45;;;16.90;;
52210;SDS011;38179;52.756;6.906;2023-03-20T03:13:30;24.25;;;16.60;;
52210;SDS011;38179;52.756;6.906;2023-03-20T03:16:02;24.10;;;17.40;;
52210;SDS011;38179;52.756;6.906;2023-03-20T03:18:33;23.25;;;16.55;;
52210;SDS011;38179;52.756;6.906;2023-03-20T03:21:00;22.65;;;17.55;;
52210;SDS011;38179;52.756;6.906;2023-03-20T03:23:33;27.08;;;17.15;;
52210;SDS011;38179;52.756;6.906;2023-03-20T03:26:05;21.98;;;17.27;;
52210;SDS011;38179;52.756;6.906;2023-03-20T03:28:35;30.38;;;18.10;;
52210;SDS011;38179;52.756;6.906;2023-03-20T03:31:08;26.83;;;17.42;;
52210;SDS011;38179;52.756;6.906;2023-03-20T03:33:41;23.65;;;17.05;;
52210;SDS011;38179;52.756;6.906;2023-03-20T03:41:29;27.33;;;18.90;;
52210;SDS011;38179;52.756;6.906;2023-03-20T03:44:06;25.75;;;17.58;;
52210;SDS011;38179;52.756;6.906;2023-03-20T03:46:45;28.20;;;18.35;;
52210;SDS011;38179;52.756;6.906;2023-03-20T03:49:21;24.88;;;17.88;;
52210;SDS011;38179;52.756;6.906;2023-03-20T03:51:53;27.20;;;18.35;;
52210;SDS011;38179;52.756;6.906;2023-03-20T03:54:27;27.45;;;19.45;;
52210;SDS011;38179;52.756;6.906;2023-03-20T03:56:57;28.92;;;18.88;;
52210;SDS011;38179;52.756;6.906;2023-03-20T03:59:29;27.35;;;19.33;;
52210;SDS011;38179;52.756;6.906;2023-03-20T04:02:01;26.33;;;18.63;;
52210;SDS011;38179;52.756;6.906;2023-03-20T04:04:30;26.23;;;18.35;;
52210;SDS011;38179;52.756;6.906;2023-03-20T04:06:58;25.55;;;17.65;;
52210;SDS011;38179;52.756;6.906;2023-03-20T04:09:24;26.73;;;18.58;;
52210;SDS011;38179;52.756;6.906;2023-03-20T04:11:51;24.85;;;16.52;;
52210;SDS011;38179;52.756;6.906;2023-03-20T04:14:21;27.33;;;17.00;;
52210;SDS011;38179;52.756;6.906;2023-03-20T04:16:47;26.35;;;17.13;;
52210;SDS011;38179;52.756;6.906;2023-03-20T04:19:13;25.40;;;16.83;;
52210;SDS011;38179;52.756;6.906;2023-03-20T04:21:38;21.77;;;15.70;;
52210;SDS011;38179;52.756;6.906;2023-03-20T04:24:04;21.13;;;15.77;;
52210;SDS011;38179;52.756;6.906;2023-03-20T04:26:31;21.95;;;15.77;;
52210;SDS011;38179;52.756;6.906;2023-03-20T04:28:58;23.10;;;15.15;;
52210;SDS011;38179;52.756;6.906;2023-03-20T04:31:24;21.73;;;14.95;;
52210;SDS011;38179;52.756;6.906;2023-03-20T04:33:50;20.10;;;14.55;;
52210;SDS011;38179;52.756;6.906;2023-03-20T04:36:16;18.40;;;14.35;;
52210;SDS011;38179;52.756;6.906;2023-03-20T04:38:42;18.27;;;13.70;;
52210;SDS011;38179;52.756;6.906;2023-03-20T04:41:08;18.05;;;12.93;;
52210;SDS011;38179;52.756;6.906;2023-03-20T04:43:34;23.13;;;13.70;;
52210;SDS011;38179;52.756;6.906;2023-03-20T04:46:00;17.98;;;12.80;;
52210;SDS011;38179;52.756;6.906;2023-03-20T04:48:25;18.48;;;13.45;;
52210;SDS011;38179;52.756;6.906;2023-03-20T04:50:54;18.95;;;12.75;;
52210;SDS011;38179;52.756;6.906;2023-03-20T04:53:20;17.10;;;12.68;;
52210;SDS011;38179;52.756;6.906;2023-03-20T04:55:46;20.58;;;13.80;;
52210;SDS011;38179;52.756;6.906;2023-03-20T04:58:12;19.05;;;13.38;;
52210;SDS011;38179;52.756;6.906;2023-03-20T05:00:38;19.70;;;13.55;;
52210;SDS011;38179;52.756;6.906;2023-03-20T05:03:04;18.38;;;13.00;;
52210;SDS011;38179;52.756;6.906;2023-03-20T05:05:30;18.05;;;13.32;;
52210;SDS011;38179;52.756;6.906;2023-03-20T05:07:56;19.88;;;13.52;;
52210;SDS011;38179;52.756;6.906;2023-03-20T05:10:22;19.38;;;13.57;;
52210;SDS011;38179;52.756;6.906;2023-03-20T05:12:48;19.13;;;15.23;;
52210;SDS011;38179;52.756;6.906;2023-03-20T05:15:14;20.95;;;14.55;;
52210;SDS011;38179;52.756;6.906;2023-03-20T05:17:40;18.10;;;14.30;;
52210;SDS011;38179;52.756;6.906;2023-03-20T05:20:06;20.33;;;15.13;;
52210;SDS011;38179;52.756;6.906;2023-03-20T05:22:33;20.83;;;14.88;;
52210;SDS011;38179;52.756;6.906;2023-03-20T05:24:59;19.73;;;14.90;;
52210;SDS011;38179;52.756;6.906;2023-03-20T05:27:25;23.13;;;15.75;;
52210;SDS011;38179;52.756;6.906;2023-03-20T05:29:51;20.70;;;15.23;;
52210;SDS011;38179;52.756;6.906;2023-03-20T05:32:17;22.42;;;15.88;;
52210;SDS011;38179;52.756;6.906;2023-03-20T05:34:43;21.58;;;16.02;;
52210;SDS011;38179;52.756;6.906;2023-03-20T05:37:08;21.80;;;15.82;;
52210;SDS011;38179;52.756;6.906;2023-03-20T05:39:36;21.58;;;16.60;;
52210;SDS011;38179;52.756;6.906;2023-03-20T05:42:05;22.35;;;16.77;;
52210;SDS011;38179;52.756;6.906;2023-03-20T05:44:32;22.30;;;16.92;;
52210;SDS011;38179;52.756;6.906;2023-03-20T05:47:01;22.15;;;18.15;;
52210;SDS011;38179;52.756;6.906;2023-03-20T05:49:26;24.08;;;17.63;;
52210;SDS011;38179;52.756;6.906;2023-03-20T05:51:52;23.02;;;17.73;;
52210;SDS011;38179;52.756;6.906;2023-03-20T05:54:18;20.25;;;16.70;;
52210;SDS011;38179;52.756;6.906;2023-03-20T05:56:44;23.42;;;18.67;;
52210;SDS011;38179;52.756;6.906;2023-03-20T05:59:10;22.27;;;17.92;;
52210;SDS011;38179;52.756;6.906;2023-03-20T06:01:36;27.27;;;18.15;;
52210;SDS011;38179;52.756;6.906;2023-03-20T06:04:02;21.77;;;17.83;;
52210;SDS011;38179;52.756;6.906;2023-03-20T06:06:28;24.45;;;18.50;;
52210;SDS011;38179;52.756;6.906;2023-03-20T06:08:54;24.42;;;18.45;;
52210;SDS011;38179;52.756;6.906;2023-03-20T06:11:20;22.48;;;16.25;;
52210;SDS011;38179;52.756;6.906;2023-03-20T06:13:46;22.23;;;17.40;;
52210;SDS011;38179;52.756;6.906;2023-03-20T06:16:12;23.73;;;17.95;;
52210;SDS011;38179;52.756;6.906;2023-03-20T06:18:37;21.13;;;17.70;;
52210;SDS011;38179;52.756;6.906;2023-03-20T06:21:03;21.65;;;16.20;;
52210;SDS011;38179;52.756;6.906;2023-03-20T06:23:30;24.92;;;17.00;;
52210;SDS011;38179;52.756;6.906;2023-03-20T06:25:56;22.63;;;17.65;;
52210;SDS011;38179;52.756;6.906;2023-03-20T06:28:21;24.48;;;16.13;;
52210;SDS011;38179;52.756;6.906;2023-03-20T06:30:49;22.42;;;15.55;;
52210;SDS011;38179;52.756;6.906;2023-03-20T06:33:17;21.98;;;14.85;;
52210;SDS011;38179;52.756;6.906;2023-03-20T06:35:44;21.02;;;14.85;;
52210;SDS011;38179;52.756;6.906;2023-03-20T06:38:14;21.13;;;14.25;;
52210;SDS011;38179;52.756;6.906;2023-03-20T06:40:42;18.83;;;14.25;;
52210;SDS011;38179;52.756;6.906;2023-03-20T06:43:09;17.50;;;13.50;;
52210;SDS011;38179;52.756;6.906;2023-03-20T06:45:37;16.98;;;13.68;;
52210;SDS011;38179;52.756;6.906;2023-03-20T06:48:06;16.00;;;14.20;;
52210;SDS011;38179;52.756;6.906;2023-03-20T06:50:33;19.02;;;14.73;;
52210;SDS011;38179;52.756;6.906;2023-03-20T06:52:59;18.23;;;14.77;;
52210;SDS011;38179;52.756;6.906;2023-03-20T06:55:26;18.02;;;14.38;;
52210;SDS011;38179;52.756;6.906;2023-03-20T06:57:52;17.23;;;13.48;;
52210;SDS011;38179;52.756;6.906;2023-03-20T07:00:18;18.67;;;14.02;;
52210;SDS011;38179;52.756;6.906;2023-03-20T07:02:46;17.98;;;13.88;;
52210;SDS011;38179;52.756;6.906;2023-03-20T07:05:13;21.95;;;14.32;;
52210;SDS011;38179;52.756;6.906;2023-03-20T07:07:39;17.42;;;13.13;;
52210;SDS011;38179;52.756;6.906;2023-03-20T07:10:05;19.10;;;13.77;;
52210;SDS011;38179;52.756;6.906;2023-03-20T07:12:32;19.25;;;13.98;;
52210;SDS011;38179;52.756;6.906;2023-03-20T07:14:58;20.60;;;13.02;;
52210;SDS011;38179;52.756;6.906;2023-03-20T07:17:25;16.38;;;13.57;;
52210;SDS011;38179;52.756;6.906;2023-03-20T07:19:51;19.38;;;13.95;;
52210;SDS011;38179;52.756;6.906;2023-03-20T07:22:18;17.40;;;13.45;;
52210;SDS011;38179;52.756;6.906;2023-03-20T07:24:49;17.05;;;13.18;;
52210;SDS011;38179;52.756;6.906;2023-03-20T07:27:18;18.88;;;12.63;;
52210;SDS011;38179;52.756;6.906;2023-03-20T07:29:45;18.55;;;12.63;;
52210;SDS011;38179;52.756;6.906;2023-03-20T07:32:11;18.30;;;13.52;;
52210;SDS011;38179;52.756;6.906;2023-03-20T07:34:37;18.35;;;12.80;;
52210;SDS011;38179;52.756;6.906;2023-03-20T07:37:03;16.75;;;11.73;;
52210;SDS011;38179;52.756;6.906;2023-03-20T07:39:29;17.55;;;12.55;;
52210;SDS011;38179;52.756;6.906;2023-03-20T07:41:55;18.55;;;13.30;;
52210;SDS011;38179;52.756;6.906;2023-03-20T07:44:21;17.90;;;13.07;;
52210;SDS011;38179;52.756;6.906;2023-03-20T07:46:47;18.90;;;13.68;;
52210;SDS011;38179;52.756;6.906;2023-03-20T07:49:13;20.27;;;14.15;;
52210;SDS011;38179;52.756;6.906;2023-03-20T07:51:42;18.95;;;13.27;;
52210;SDS011;38179;52.756;6.906;2023-03-20T07:54:10;18.13;;;13.32;;
52210;SDS011;38179;52.756;6.906;2023-03-20T07:56:36;17.27;;;12.90;;
52210;SDS011;38179;52.756;6.906;2023-03-20T07:59:02;17.55;;;12.93;;
52210;SDS011;38179;52.756;6.906;2023-03-20T08:01:28;20.50;;;13.68;;
52210;SDS011;38179;52.756;6.906;2023-03-20T08:03:54;19.08;;;13.00;;
52210;SDS011;38179;52.756;6.906;2023-03-20T08:06:20;18.00;;;13.90;;
52210;SDS011;38179;52.756;6.906;2023-03-20T08:08:46;19.67;;;14.10;;
52210;SDS011;38179;52.756;6.906;2023-03-20T08:11:12;22.00;;;13.68;;
52210;SDS011;38179;52.756;6.906;2023-03-20T08:13:38;20.85;;;13.50;;
52210;SDS011;38179;52.756;6.906;2023-03-20T08:16:04;17.00;;;13.93;;
52210;SDS011;38179;52.756;6.906;2023-03-20T08:18:30;17.90;;;14.10;;
52210;SDS011;38179;52.756;6.906;2023-03-20T08:20:56;20.73;;;14.10;;
52210;SDS011;38179;52.756;6.906;2023-03-20T08:23:21;22.20;;;14.18;;
52210;SDS011;38179;52.756;6.906;2023-03-20T08:25:48;16.27;;;13.68;;
52210;SDS011;38179;52.756;6.906;2023-03-20T08:28:16;22.98;;;15.30;;
52210;SDS011;38179;52.756;6.906;2023-03-20T08:30:42;18.60;;;14.20;;
52210;SDS011;38179;52.756;6.906;2023-03-20T08:33:08;24.77;;;14.65;;
52210;SDS011;38179;52.756;6.906;2023-03-20T08:35:35;17.90;;;14.35;;
52210;SDS011;38179;52.756;6.906;2023-03-20T08:38:01;30.70;;;16.73;;
52210;SDS011;38179;52.756;6.906;2023-03-20T08:40:27;19.30;;;14.52;;
52210;SDS011;38179;52.756;6.906;2023-03-20T08:42:53;22.02;;;15.18;;
52210;SDS011;38179;52.756;6.906;2023-03-20T08:45:21;19.35;;;14.45;;
52210;SDS011;38179;52.756;6.906;2023-03-20T08:47:49;23.08;;;14.63;;
52210;SDS011;38179;52.756;6.906;2023-03-20T08:50:16;19.35;;;14.02;;
52210;SDS011;38179;52.756;6.906;2023-03-20T08:52:43;21.92;;;14.98;;
52210;SDS011;38179;52.756;6.906;2023-03-20T08:55:11;19.00;;;15.20;;
52210;SDS011;38179;52.756;6.906;2023-03-20T08:57:38;21.00;;;14.80;;
52210;SDS011;38179;52.756;6.906;2023-03-20T09:00:05;19.70;;;14.63;;
52210;SDS011;38179;52.756;6.906;2023-03-20T09:02:35;21.63;;;15.40;;
52210;SDS011;38179;52.756;6.906;2023-03-20T09:05:01;21.38;;;15.52;;
52210;SDS011;38179;52.756;6.906;2023-03-20T09:07:28;20.60;;;15.70;;
52210;SDS011;38179;52.756;6.906;2023-03-20T09:09:53;22.20;;;15.38;;
52210;SDS011;38179;52.756;6.906;2023-03-20T09:12:19;26.05;;;15.82;;
52210;SDS011;38179;52.756;6.906;2023-03-20T09:14:45;19.10;;;15.23;;
52210;SDS011;38179;52.756;6.906;2023-03-20T09:17:11;21.00;;;15.30;;
52210;SDS011;38179;52.756;6.906;2023-03-20T09:19:37;22.35;;;15.82;;
52210;SDS011;38179;52.756;6.906;2023-03-20T09:22:04;21.30;;;15.93;;
52210;SDS011;38179;52.756;6.906;2023-03-20T09:24:30;20.80;;;14.70;;
52210;SDS011;38179;52.756;6.906;2023-03-20T09:26:57;18.02;;;15.07;;
52210;SDS011;38179;52.756;6.906;2023-03-20T09:29:25;23.90;;;16.10;;
52210;SDS011;38179;52.756;6.906;2023-03-20T09:31:52;18.20;;;16.02;;
52210;SDS011;38179;52.756;6.906;2023-03-20T09:34:18;20.15;;;15.10;;
52210;SDS011;38179;52.756;6.906;2023-03-20T09:36:45;22.58;;;15.68;;
52210;SDS011;38179;52.756;6.906;2023-03-20T09:39:10;22.83;;;15.43;;
52210;SDS011;38179;52.756;6.906;2023-03-20T09:41:36;23.45;;;16.10;;
52210;SDS011;38179;52.756;6.906;2023-03-20T09:47:29;23.67;;;15.90;;
52210;SDS011;38179;52.756;6.906;2023-03-20T09:50:22;20.50;;;15.65;;
52210;SDS011;38179;52.756;6.906;2023-03-20T09:53:02;18.63;;;14.30;;
52210;SDS011;38179;52.756;6.906;2023-03-20T09:55:34;19.88;;;14.18;;
52210;SDS011;38179;52.756;6.906;2023-03-20T09:58:22;18.13;;;13.48;;
52210;SDS011;38179;52.756;6.906;2023-03-20T10:00:51;19.08;;;14.20;;
52210;SDS011;38179;52.756;6.906;2023-03-20T10:03:27;18.85;;;13.45;;
52210;SDS011;38179;52.756;6.906;2023-03-20T10:06:03;15.90;;;13.88;;
52210;SDS011;38179;52.756;6.906;2023-03-20T10:08:33;22.35;;;13.40;;
52210;SDS011;38179;52.756;6.906;2023-03-20T10:25:05;18.33;;;14.43;;
52210;SDS011;38179;52.756;6.906;2023-03-20T10:27:55;19.80;;;13.98;;
52210;SDS011;38179;52.756;6.906;2023-03-20T10:30:27;14.88;;;13.27;;
52210;SDS011;38179;52.756;6.906;2023-03-20T10:33:21;16.83;;;13.85;;
52210;SDS011;38179;52.756;6.906;2023-03-20T10:41:08;17.48;;;13.30;;
52210;SDS011;38179;52.756;6.906;2023-03-20T10:43:41;16.70;;;12.32;;
52210;SDS011;38179;52.756;6.906;2023-03-20T10:46:17;13.45;;;12.05;;
52210;SDS011;38179;52.756;6.906;2023-03-20T10:49:00;14.38;;;11.73;;
52210;SDS011;38179;52.756;6.906;2023-03-20T10:51:40;15.60;;;12.60;;
52210;SDS011;38179;52.756;6.906;2023-03-20T10:54:22;16.55;;;12.98;;
52210;SDS011;38179;52.756;6.906;2023-03-20T10:56:51;17.10;;;12.77;;
52210;SDS011;38179;52.756;6.906;2023-03-20T11:01:55;19.42;;;13.80;;
52210;SDS011;38179;52.756;6.906;2023-03-20T11:04:21;20.60;;;13.98;;
52210;SDS011;38179;52.756;6.906;2023-03-20T11:07:01;18.40;;;13.98;;
52210;SDS011;38179;52.756;6.906;2023-03-20T11:12:39;18.35;;;14.10;;
52210;SDS011;38179;52.756;6.906;2023-03-20T11:17:58;20.77;;;14.18;;
52210;SDS011;38179;52.756;6.906;2023-03-20T11:20:33;21.00;;;16.00;;
52210;SDS011;38179;52.756;6.906;2023-03-20T11:23:02;20.77;;;15.50;;
52210;SDS011;38179;52.756;6.906;2023-03-20T11:25:35;16.88;;;14.60;;
52210;SDS011;38179;52.756;6.906;2023-03-20T11:36:56;25.10;;;15.45;;
52210;SDS011;38179;52.756;6.906;2023-03-20T11:39:29;15.85;;;14.05;;
52210;SDS011;38179;52.756;6.906;2023-03-20T11:42:01;19.83;;;15.13;;
52210;SDS011;38179;52.756;6.906;2023-03-20T11:44:31;19.92;;;14.45;;
52210;SDS011;38179;52.756;6.906;2023-03-20T11:47:13;17.92;;;13.80;;
52210;SDS011;38179;52.756;6.906;2023-03-20T11:49:56;22.15;;;14.00;;
52210;SDS011;38179;52.756;6.906;2023-03-20T11:52:24;20.33;;;14.27;;
52210;SDS011;38179;52.756;6.906;2023-03-20T11:54:55;18.30;;;14.57;;
52210;SDS011;38179;52.756;6.906;2023-03-20T12:00:19;19.55;;;14.00;;
52210;SDS011;38179;52.756;6.906;2023-03-20T12:02:48;19.67;;;14.07;;
52210;SDS011;38179;52.756;6.906;2023-03-20T12:07:55;18.08;;;14.30;;
52210;SDS011;38179;52.756;6.906;2023-03-20T12:10:26;18.73;;;14.73;;
52210;SDS011;38179;52.756;6.906;2023-03-20T12:13:01;16.50;;;14.18;;
52210;SDS011;38179;52.756;6.906;2023-03-20T12:15:31;17.67;;;13.85;;
52210;SDS011;38179;52.756;6.906;2023-03-20T12:26:04;18.05;;;13.40;;
52210;SDS011;38179;52.756;6.906;2023-03-20T12:28:46;21.15;;;13.13;;
52210;SDS011;38179;52.756;6.906;2023-03-20T12:31:28;16.40;;;13.13;;
52210;SDS011;38179;52.756;6.906;2023-03-20T12:34:06;18.08;;;13.52;;
52210;SDS011;38179;52.756;6.906;2023-03-20T12:36:49;16.60;;;13.32;;
52210;SDS011;38179;52.756;6.906;2023-03-20T12:39:24;14.75;;;12.20;;
52210;SDS011;38179;52.756;6.906;2023-03-20T12:42:07;18.65;;;12.93;;
52210;SDS011;38179;52.756;6.906;2023-03-20T12:55:04;15.02;;;11.43;;
52210;SDS011;38179;52.756;6.906;2023-03-20T13:00:41;13.52;;;10.77;;
52210;SDS011;38179;52.756;6.906;2023-03-20T13:06:19;13.85;;;10.60;;
52210;SDS011;38179;52.756;6.906;2023-03-20T13:14:28;12.88;;;9.98;;
52210;SDS011;38179;52.756;6.906;2023-03-20T13:16:59;11.88;;;10.13;;
52210;SDS011;38179;52.756;6.906;2023-03-20T13:19:41;12.57;;;10.50;;
52210;SDS011;38179;52.756;6.906;2023-03-20T13:22:24;12.07;;;10.38;;
52210;SDS011;38179;52.756;6.906;2023-03-20T13:28:02;15.93;;;10.68;;
52210;SDS011;38179;52.756;6.906;2023-03-20T13:38:48;13.38;;;10.00;;
52210;SDS011;38179;52.756;6.906;2023-03-20T13:41:18;11.13;;;9.65;;
52210;SDS011;38179;52.756;6.906;2023-03-20T13:43:48;14.63;;;10.27;;
52210;SDS011;38179;52.756;6.906;2023-03-20T13:46:23;12.32;;;9.88;;
52210;SDS011;38179;52.756;6.906;2023-03-20T13:48:57;13.35;;;9.80;;
52210;SDS011;38179;52.756;6.906;2023-03-20T13:51:34;11.60;;;9.73;;
52210;SDS011;38179;52.756;6.906;2023-03-20T13:56:59;14.32;;;9.77;;
52210;SDS011;38179;52.756;6.906;2023-03-20T14:05:04;13.77;;;9.95;;
52210;SDS011;38179;52.756;6.906;2023-03-20T14:07:37;13.15;;;10.07;;
52210;SDS011;38179;52.756;6.906;2023-03-20T14:12:52;11.75;;;9.93;;
52210;SDS011;38179;52.756;6.906;2023-03-20T14:15:21;12.80;;;10.07;;
52210;SDS011;38179;52.756;6.906;2023-03-20T14:17:52;11.30;;;9.70;;
52210;SDS011;38179;52.756;6.906;2023-03-20T14:20:41;12.38;;;10.70;;
52210;SDS011;38179;52.756;6.906;2023-03-20T14:23:17;15.30;;;11.13;;
52210;SDS011;38179;52.756;6.906;2023-03-20T14:25:45;16.48;;;10.80;;
52210;SDS011;38179;52.756;6.906;2023-03-20T14:30:42;13.30;;;10.30;;
52210;SDS011;38179;52.756;6.906;2023-03-20T14:50:04;14.30;;;9.48;;
52210;SDS011;38179;52.756;6.906;2023-03-20T14:52:21;11.13;;;9.48;;
52210;SDS011;38179;52.756;6.906;2023-03-20T14:54:53;12.10;;;10.13;;
52210;SDS011;38179;52.756;6.906;2023-03-20T14:57:30;12.45;;;10.40;;
52210;SDS011;38179;52.756;6.906;2023-03-20T14:59:58;13.23;;;11.80;;
52210;SDS011;38179;52.756;6.906;2023-03-20T15:02:26;17.08;;;11.50;;
52210;SDS011;38179;52.756;6.906;2023-03-20T15:04:54;12.05;;;10.70;;
52210;SDS011;38179;52.756;6.906;2023-03-20T15:09:50;18.38;;;12.43;;
52210;SDS011;38179;52.756;6.906;2023-03-20T15:12:22;16.05;;;12.05;;
52210;SDS011;38179;52.756;6.906;2023-03-20T15:14:52;15.93;;;13.00;;
52210;SDS011;38179;52.756;6.906;2023-03-20T15:20:11;14.30;;;12.77;;
52210;SDS011;38179;52.756;6.906;2023-03-20T15:28:03;17.38;;;13.85;;
52210;SDS011;38179;52.756;6.906;2023-03-20T15:30:30;20.45;;;14.13;;
52210;SDS011;38179;52.756;6.906;2023-03-20T15:32:58;20.52;;;13.48;;
52210;SDS011;38179;52.756;6.906;2023-03-20T15:35:25;19.25;;;13.98;;
52210;SDS011;38179;52.756;6.906;2023-03-20T15:37:51;17.90;;;14.30;;
52210;SDS011;38179;52.756;6.906;2023-03-20T15:42:52;16.73;;;14.07;;
52210;SDS011;38179;52.756;6.906;2023-03-20T15:45:31;21.30;;;14.15;;
52210;SDS011;38179;52.756;6.906;2023-03-20T15:50:32;17.88;;;14.18;;
52210;SDS011;38179;52.756;6.906;2023-03-20T15:53:02;21.23;;;15.55;;
52210;SDS011;38179;52.756;6.906;2023-03-20T15:55:30;19.70;;;15.55;;
52210;SDS011;38179;52.756;6.906;2023-03-20T15:57:57;21.70;;;15.45;;
52210;SDS011;38179;52.756;6.906;2023-03-20T16:00:31;18.57;;;15.57;;
52210;SDS011;38179;52.756;6.906;2023-03-20T16:02:59;19.83;;;15.35;;
52210;SDS011;38179;52.756;6.906;2023-03-20T16:05:28;18.85;;;14.88;;
52210;SDS011;38179;52.756;6.906;2023-03-20T16:07:55;21.13;;;15.77;;
52210;SDS011;38179;52.756;6.906;2023-03-20T16:10:31;20.92;;;16.15;;
52210;SDS011;38179;52.756;6.906;2023-03-20T16:13:00;25.30;;;16.30;;
52210;SDS011;38179;52.756;6.906;2023-03-20T16:15:27;19.35;;;15.15;;
52210;SDS011;38179;52.756;6.906;2023-03-20T16:17:56;21.77;;;16.95;;
52210;SDS011;38179;52.756;6.906;2023-03-20T16:20:26;19.98;;;16.75;;
52210;SDS011;38179;52.756;6.906;2023-03-20T16:23:01;21.30;;;16.95;;
52210;SDS011;38179;52.756;6.906;2023-03-20T16:25:30;25.48;;;17.50;;
52210;SDS011;38179;52.756;6.906;2023-03-20T16:27:56;22.80;;;17.40;;
52210;SDS011;38179;52.756;6.906;2023-03-20T16:30:24;24.70;;;17.00;;
52210;SDS011;38179;52.756;6.906;2023-03-20T16:33:04;20.95;;;16.33;;
52210;SDS011;38179;52.756;6.906;2023-03-20T16:35:44;23.17;;;16.80;;
52210;SDS011;38179;52.756;6.906;2023-03-20T16:38:22;22.90;;;16.85;;
52210;SDS011;38179;52.756;6.906;2023-03-20T16:40:54;24.42;;;16.85;;
52210;SDS011;38179;52.756;6.906;2023-03-20T16:43:37;22.15;;;16.60;;
52210;SDS011;38179;52.756;6.906;2023-03-20T16:46:03;25.70;;;18.08;;
52210;SDS011;38179;52.756;6.906;2023-03-20T16:48:31;25.38;;;18.83;;
52210;SDS011;38179;52.756;6.906;2023-03-20T16:53:49;27.58;;;18.52;;
52210;SDS011;38179;52.756;6.906;2023-03-20T16:56:26;24.42;;;18.40;;
52210;SDS011;38179;52.756;6.906;2023-03-20T16:59:07;25.15;;;17.70;;
52210;SDS011;38179;52.756;6.906;2023-03-20T17:01:34;23.95;;;18.70;;
52210;SDS011;38179;52.756;6.906;2023-03-20T17:06:49;24.92;;;19.20;;
52210;SDS011;38179;52.756;6.906;2023-03-20T17:09:20;21.77;;;19.48;;
52210;SDS011;38179;52.756;6.906;2023-03-20T17:11:51;23.73;;;18.15;;
52210;SDS011;38179;52.756;6.906;2023-03-20T17:14:30;26.75;;;19.08;;
52210;SDS011;38179;52.756;6.906;2023-03-20T17:16:56;24.90;;;18.60;;
52210;SDS011;38179;52.756;6.906;2023-03-20T17:19:22;26.95;;;19.92;;
52210;SDS011;38179;52.756;6.906;2023-03-20T17:21:48;23.73;;;19.60;;
52210;SDS011;38179;52.756;6.906;2023-03-20T17:24:15;30.35;;;20.73;;
52210;SDS011;38179;52.756;6.906;2023-03-20T17:26:43;24.88;;;19.77;;
52210;SDS011;38179;52.756;6.906;2023-03-20T17:29:14;27.23;;;20.67;;
52210;SDS011;38179;52.756;6.906;2023-03-20T17:31:40;26.38;;;21.33;;
52210;SDS011;38179;52.756;6.906;2023-03-20T17:34:06;28.15;;;21.05;;